Time;durP1;ratioP1;P1;durP2;ratioP2;P2;SDS_P1;SDS_P2;PMS_P1;PMS_P2;Temp;Humidity;BMP_temperature;BMP_pressure;BME280_temperature;BME280_humidity;BME280_pressure;Samples;Min_cycle;Max_cycle;Signal;HPM_P1;HPM_P2
2021/12/15 00:05:13;;;;;;;;;;;;;;;;;;;;;
2021/12/15 00:08:14;;;;;;;;;;;;;;;;;;;;;
2021/12/15 00:11:33;;;;;;;;;;;;;;;;;;;;;
2021/12/15 00:14:41;;;;;;;;;;;;;;;;;;;;;
2021/12/15 00:17:36;;;;;;;;;47.50;37.00;;;;;16.12;100.00;102636.25;5014197;28;68800;-84
2021/12/15 00:20:18;;;;;;;;;52.00;38.25;;;;;15.94;99.49;102655.06;5019178;28;45235;-84
2021/12/15 00:22:52;;;;;;;;;54.75;38.00;;;;;15.55;100.00;102655.63;5022716;28;45541;-85
2021/12/15 00:25:23;;;;;;;;;58.25;38.75;;;;;15.47;100.00;102655.19;5022165;28;45286;-84
2021/12/15 00:27:49;;;;;;;;;55.25;41.50;;;;;15.48;100.00;102662.19;5005553;28;45404;-84
2021/12/15 00:30:15;;;;;;;;;52.50;40.00;;;;;15.42;100.00;102648.38;5021062;28;45327;-84
2021/12/15 00:32:41;;;;;;;;;51.00;38.00;;;;;15.36;100.00;102654.94;5021259;28;46156;-84
2021/12/15 00:35:08;;;;;;;;;49.25;35.25;;;;;15.47;100.00;102657.84;5004285;28;45594;-84
2021/12/15 00:37:34;;;;;;;;;48.75;38.50;;;;;15.46;100.00;102645.47;5022370;28;45332;-84
2021/12/15 00:40:00;;;;;;;;;48.50;37.00;;;;;15.43;100.00;102644.78;5023629;28;45495;-84
2021/12/15 00:42:26;;;;;;;;;48.25;38.25;;;;;15.34;100.00;102652.34;5023533;28;45222;-84
2021/12/15 00:44:51;;;;;;;;;49.75;37.50;;;;;15.34;100.00;102652.34;5021729;28;45199;-84
2021/12/15 00:47:17;;;;;;;;;52.00;39.50;;;;;15.95;100.00;102637.25;5004556;28;45452;-84
2021/12/15 00:49:43;;;;;;;;;52.25;38.25;;;;;16.09;100.00;102643.50;5021659;28;45372;-84
2021/12/15 00:52:09;;;;;;;;;47.50;36.25;;;;;16.19;100.00;102641.13;5021834;28;45792;-84
2021/12/15 00:54:38;;;;;;;;;50.50;39.50;;;;;16.33;99.78;102645.59;5021809;28;45407;-84
2021/12/15 00:57:04;;;;;;;;;48.00;35.00;;;;;16.40;99.04;102642.47;5021541;28;45214;-84
2021/12/15 00:59:30;;;;;;;;;54.00;38.00;;;;;16.43;98.80;102636.94;5008521;28;45440;-84
2021/12/15 01:01:58;;;;;;;;;48.25;36.00;;;;;16.50;98.31;102640.09;5003805;28;47196;-84
2021/12/15 01:04:24;;;;;;;;;47.50;35.00;;;;;16.52;97.27;102645.31;5022675;28;45458;-84
2021/12/15 01:06:54;;;;;;;;;50.00;35.00;;;;;16.43;97.65;102641.44;5004293;28;45493;-84
2021/12/15 01:09:25;;;;;;;;;57.25;34.75;;;;;16.46;98.08;102636.78;5021699;28;45873;-84
2021/12/15 01:12:20;;;;;;;;;43.50;33.50;;;;;16.49;97.87;102635.69;5021816;28;45380;-84
2021/12/15 01:20:33;;;;;;;;;43.75;32.75;;;;;16.48;97.24;102648.19;5021952;28;45217;-84
2021/12/15 01:23:04;;;;;;;;;43.00;32.00;;;;;16.55;97.24;102646.00;5004056;28;46935;-84
2021/12/15 01:25:33;;;;;;;;;40.50;33.00;;;;;16.59;96.51;102654.66;5021689;28;45369;-84
2021/12/15 01:27:59;;;;;;;;;39.00;34.25;;;;;16.42;96.42;102642.38;5023232;28;45369;-84
2021/12/15 01:30:28;;;;;;;;;47.25;32.75;;;;;16.40;96.17;102634.47;5022697;28;45375;-84
2021/12/15 01:32:57;;;;;;;;;43.75;34.50;;;;;16.45;96.71;102637.72;5032336;28;45369;-84
2021/12/15 01:35:23;;;;;;;;;37.50;29.75;;;;;16.42;96.75;102637.03;5033568;28;44937;-83
2021/12/15 01:37:52;;;;;;;;;47.75;34.25;;;;;16.48;96.83;102637.50;5025612;28;44691;-83
2021/12/15 01:40:31;;;;;;;;;48.00;37.00;;;;;16.55;96.73;102639.81;5041864;28;45569;-83
2021/12/15 01:42:57;;;;;;;;;39.75;31.00;;;;;16.70;95.77;102631.72;5027711;28;45238;-84
2021/12/15 01:48:15;;;;;;;;;36.00;29.75;;;;;16.43;96.37;102644.09;4993631;28;45467;-84
2021/12/15 01:50:50;;;;;;;;;34.50;30.75;;;;;16.40;96.55;102639.78;5023684;28;45429;-83
2021/12/15 01:53:16;;;;;;;;;36.50;31.00;;;;;16.48;96.31;102647.31;5024999;28;45254;-83
2021/12/15 01:55:42;;;;;;;;;42.00;30.75;;;;;16.52;95.75;102645.31;5024289;28;45353;-84
2021/12/15 01:58:08;;;;;;;;;50.25;34.50;;;;;16.61;95.96;102645.66;5025781;28;45499;-84
2021/12/15 02:00:42;;;;;;;;;38.00;28.00;;;;;16.69;96.16;102654.03;5003950;28;45488;-84
2021/12/15 02:03:07;;;;;;;;;49.50;34.00;;;;;16.70;95.94;102652.22;5020979;28;45473;-84
2021/12/15 02:05:34;;;;;;;;;41.50;32.50;;;;;16.73;95.95;102662.69;5020975;28;45379;-84
2021/12/15 02:08:01;;;;;;;;;43.25;32.50;;;;;16.68;96.10;102648.78;5003470;28;45361;-84
2021/12/15 02:10:31;;;;;;;;;49.75;33.50;;;;;16.75;95.73;102647.47;5021012;28;45389;-84
2021/12/15 02:12:59;;;;;;;;;45.00;36.50;;;;;16.88;95.38;102661.72;5002866;28;46347;-84
2021/12/15 02:15:36;;;;;;;;;48.75;34.75;;;;;16.71;95.90;102657.44;5020793;28;45443;-83
2021/12/15 02:18:04;;;;;;;;;45.75;32.50;;;;;16.64;95.80;102656.13;5020456;28;45332;-84
2021/12/15 02:20:39;;;;;;;;;36.75;31.50;;;;;16.67;95.99;102665.72;5020827;28;45317;-84
2021/12/15 02:23:07;;;;;;;;;45.75;34.00;;;;;16.41;96.62;102678.00;5020597;28;45463;-84
2021/12/15 02:25:33;;;;;;;;;43.00;33.25;;;;;16.15;96.94;102670.72;5002826;28;45523;-84
2021/12/15 02:28:01;;;;;;;;;52.00;35.75;;;;;16.32;96.68;102666.06;5002843;28;45440;-84
2021/12/15 02:33:12;;;;;;;;;45.50;34.00;;;;;16.35;97.04;102663.22;5019806;28;45455;-84
2021/12/15 02:38:38;;;;;;;;;45.25;34.25;;;;;16.34;97.06;102668.66;5009222;28;45372;-84
2021/12/15 02:41:12;;;;;;;;;41.25;31.50;;;;;16.37;97.49;102664.00;5018246;28;45474;-84
2021/12/15 02:43:37;;;;;;;;;50.75;32.50;;;;;16.52;97.08;102672.00;5011321;28;45419;-84
2021/12/15 02:46:05;;;;;;;;;49.00;36.25;;;;;16.31;96.84;102669.69;5020315;28;45527;-84
2021/12/15 02:48:30;;;;;;;;;41.25;27.75;;;;;16.35;96.82;102668.56;5020102;28;45375;-84
2021/12/15 02:50:57;;;;;;;;;43.75;27.75;;;;;16.33;96.89;102673.13;5020213;28;45437;-84
2021/12/15 02:53:23;;;;;;;;;43.75;34.25;;;;;16.32;96.55;102662.56;5002124;28;46120;-84
2021/12/15 02:55:49;;;;;;;;;43.75;35.50;;;;;16.41;96.95;102667.31;5019961;28;45563;-84
2021/12/15 02:58:18;;;;;;;;;36.00;28.75;;;;;16.49;96.76;102670.38;5020297;28;45293;-84
2021/12/15 03:00:52;;;;;;;;;37.75;28.75;;;;;16.54;96.86;102664.75;5019911;28;45373;-84
2021/12/15 03:03:59;;;;;;;;;40.50;35.00;;;;;16.35;96.81;102663.22;5001948;28;46144;-85
2021/12/15 03:06:30;;;;;;;;;41.00;32.50;;;;;16.40;96.66;102661.13;5019784;28;45331;-85
2021/12/15 03:09:35;;;;;;;;;50.00;34.50;;;;;16.45;96.72;102658.19;5020062;28;45247;-85
2021/12/15 03:17:21;;;;;;;;;39.50;33.50;;;;;16.04;96.71;102653.56;5020088;28;45261;-85
2021/12/15 03:19:49;;;;;;;;;47.00;36.25;;;;;16.12;96.52;102661.09;5019921;28;45412;-85
2021/12/15 03:22:14;;;;;;;;;37.25;35.50;;;;;16.14;96.75;102658.34;5019919;28;45315;-85
2021/12/15 03:24:40;;;;;;;;;52.25;36.25;;;;;16.10;96.56;102665.69;5019657;28;45368;-85
2021/12/15 03:27:12;;;;;;;;;40.00;31.00;;;;;16.14;96.82;102664.53;5019846;28;45451;-85
2021/12/15 03:37:59;;;;;;;;;40.00;29.75;;;;;16.41;96.04;102656.66;5020038;28;45409;-85
2021/12/15 03:40:38;;;;;;;;;44.75;32.75;;;;;16.21;95.77;102665.88;5001879;28;45267;-85
2021/12/15 03:43:08;;;;;;;;;43.00;32.00;;;;;16.23;96.73;102674.63;5001562;28;45425;-85
2021/12/15 03:45:41;;;;;;;;;42.75;31.75;;;;;16.30;96.67;102680.44;5019596;28;46412;-85
2021/12/15 03:48:13;;;;;;;;;39.00;32.50;;;;;15.87;96.90;102683.03;5001114;28;45388;-85
2021/12/15 03:50:39;;;;;;;;;44.50;29.75;;;;;15.91;96.96;102671.25;5001858;28;45497;-85
2021/12/15 03:53:06;;;;;;;;;42.50;30.00;;;;;15.60;96.73;102685.50;5019480;28;45325;-85
2021/12/15 03:55:33;;;;;;;;;36.75;31.75;;;;;15.46;97.01;102681.88;5019299;28;45515;-85
2021/12/15 03:58:01;;;;;;;;;40.50;31.50;;;;;15.52;97.24;102678.84;4991834;28;45733;-85
2021/12/15 04:00:32;;;;;;;;;27.50;25.50;;;;;15.53;97.78;102683.25;5022930;28;45325;-85
2021/12/15 04:02:58;;;;;;;;;34.75;29.25;;;;;15.28;98.00;102686.44;5022612;28;45240;-85
2021/12/15 04:05:26;;;;;;;;;34.50;27.00;;;;;15.45;97.82;102690.81;5004723;28;47210;-85
2021/12/15 04:07:52;;;;;;;;;39.00;29.50;;;;;15.35;97.71;102679.81;5022888;28;45449;-85
2021/12/15 04:10:22;;;;;;;;;33.75;25.25;;;;;15.31;98.59;102689.78;5022870;28;45348;-85
2021/12/15 04:12:49;;;;;;;;;40.50;29.50;;;;;15.49;98.04;102681.69;5004793;28;45427;-84
2021/12/15 04:18:06;;;;;;;;;24.75;22.25;;;;;15.42;98.10;102675.88;5022526;28;45315;-85
2021/12/15 04:20:35;;;;;;;;;30.00;22.00;;;;;15.36;96.97;102678.88;5005263;28;45443;-84
2021/12/15 04:23:02;;;;;;;;;41.00;27.25;;;;;15.27;97.95;102668.75;5005424;28;45191;-85
2021/12/15 04:25:32;;;;;;;;;37.75;30.00;;;;;15.45;97.96;102678.38;5023971;28;46439;-85
2021/12/15 04:28:04;;;;;;;;;34.50;27.25;;;;;15.50;98.05;102678.09;5024731;28;45483;-84
2021/12/15 04:30:33;;;;;;;;;40.50;29.25;;;;;15.37;98.85;102677.94;5026092;28;45463;-85
2021/12/15 04:33:07;;;;;;;;;31.00;25.25;;;;;15.37;98.76;102664.63;5025153;28;45452;-85
2021/12/15 04:35:34;;;;;;;;;34.50;29.25;;;;;15.42;98.59;102665.22;5003131;28;47390;-85
2021/12/15 04:38:00;;;;;;;;;33.75;26.25;;;;;15.32;98.46;102670.19;5004370;28;45615;-85
2021/12/15 04:40:26;;;;;;;;;45.25;27.25;;;;;15.37;98.45;102677.94;5022515;28;45330;-85
2021/12/15 04:42:52;;;;;;;;;35.00;24.25;;;;;15.32;98.33;102674.66;5022029;28;45379;-85
2021/12/15 04:45:23;;;;;;;;;10.75;3.25;;;;;15.32;98.70;102666.69;5022464;28;45497;-85
2021/12/15 04:47:51;;;;;;;;;21.50;21.50;;;;;15.42;98.97;102680.31;5021879;28;45266;-85
2021/12/15 04:50:19;;;;;;;;;34.00;24.25;;;;;15.47;98.47;102681.81;5022270;28;45353;-85
2021/12/15 04:52:45;;;;;;;;;30.50;23.50;;;;;15.49;98.07;102673.69;5022014;28;45372;-85
2021/12/15 04:55:13;;;;;;;;;30.00;24.50;;;;;15.41;98.10;102679.47;5022031;28;45472;-85
2021/12/15 04:57:38;;;;;;;;;35.00;24.25;;;;;15.34;98.70;102680.78;5003863;28;45671;-85
2021/12/15 05:00:14;;;;;;;;;41.50;29.50;;;;;15.61;98.33;102683.69;5037358;28;45400;-85
2021/12/15 05:02:40;;;;;;;;;27.00;23.25;;;;;15.44;99.03;102689.94;5021360;28;45254;-85
2021/12/15 05:05:08;;;;;;;;;40.50;27.25;;;;;15.60;97.97;102696.16;5003950;28;47360;-85
2021/12/15 05:07:34;;;;;;;;;30.25;22.50;;;;;15.51;97.96;102693.97;5021125;28;45435;-85
2021/12/15 05:10:00;;;;;;;;;30.50;23.75;;;;;15.43;97.69;102695.34;5021906;28;45436;-84
2021/12/15 05:12:26;;;;;;;;;27.00;20.50;;;;;15.55;97.89;102692.91;5021636;28;45500;-85
2021/12/15 05:14:52;;;;;;;;;22.25;20.50;;;;;15.51;97.86;102698.44;5021680;28;45403;-85
2021/12/15 05:17:18;;;;;;;;;26.75;18.25;;;;;15.53;97.83;102707.22;5003461;28;45752;-85
2021/12/15 05:19:46;;;;;;;;;29.00;24.50;;;;;15.38;97.58;102695.63;5004015;28;45263;-85
2021/12/15 05:22:13;;;;;;;;;28.50;21.25;;;;;15.32;97.43;102706.59;5004050;28;45473;-85
2021/12/15 05:24:38;;;;;;;;;37.50;21.50;;;;;15.33;97.40;102703.00;5020270;28;46051;-85
2021/12/15 05:27:09;;;;;;;;;23.50;20.25;;;;;15.31;97.16;102699.56;5021668;28;45326;-85
2021/12/15 05:29:45;;;;;;;;;28.00;18.75;;;;;15.27;97.80;102703.34;5014686;28;45384;-84
2021/12/15 05:32:12;;;;;;;;;30.25;20.25;;;;;15.27;97.84;102700.69;5015470;28;45223;-85
2021/12/15 05:34:39;;;;;;;;;28.00;21.25;;;;;15.27;98.20;102708.69;5018483;28;45446;-85
2021/12/15 05:37:05;;;;;;;;;34.00;25.00;;;;;15.43;97.79;102716.66;5010264;28;45325;-85
2021/12/15 05:39:31;;;;;;;;;28.25;21.75;;;;;15.29;98.37;102713.00;5021377;28;45556;-85
2021/12/15 05:41:57;;;;;;;;;27.75;22.75;;;;;15.36;97.89;102721.47;5028253;28;45608;-85
2021/12/15 05:44:23;;;;;;;;;25.25;20.00;;;;;15.37;98.12;102723.19;5024305;28;45189;-85
2021/12/15 05:46:51;;;;;;;;;28.25;19.00;;;;;15.33;98.57;102719.84;5023666;28;45613;-85
2021/12/15 05:49:17;;;;;;;;;29.00;21.75;;;;;15.39;97.40;102718.63;5022955;28;45175;-85
2021/12/15 05:51:42;;;;;;;;;32.00;24.75;;;;;15.48;97.19;102720.75;5002415;28;45528;-85
2021/12/15 05:54:09;;;;;;;;;35.25;22.00;;;;;15.38;97.10;102718.75;5020106;28;46456;-84
2021/12/15 05:56:35;;;;;;;;;31.25;22.25;;;;;15.27;97.06;102728.19;5018302;28;45684;-84
2021/12/15 05:59:00;;;;;;;;;27.25;21.50;;;;;15.23;97.30;102725.75;5002609;28;45538;-84
2021/12/15 06:01:27;;;;;;;;;22.75;20.00;;;;;15.19;97.27;102717.09;4999640;28;45496;-86
2021/12/15 06:03:53;;;;;;;;;23.75;19.00;;;;;15.17;98.24;102726.09;5018756;28;45452;-86
2021/12/15 06:06:19;;;;;;;;;26.50;21.00;;;;;15.13;97.70;102732.53;5022903;28;45278;-85
2021/12/15 06:08:44;;;;;;;;;24.75;19.75;;;;;15.02;97.69;102727.81;5020389;28;45243;-86
2021/12/15 06:11:09;;;;;;;;;30.50;22.50;;;;;14.84;98.27;102732.31;5025102;28;45458;-86
2021/12/15 06:13:53;;;;;;;;;27.50;22.00;;;;;15.04;98.26;102738.34;5017096;28;47579;-86
2021/12/15 06:16:33;;;;;;;;;26.00;20.00;;;;;14.95;98.48;102727.28;5020379;28;45627;-86
2021/12/15 06:18:59;;;;;;;;;33.75;22.00;;;;;14.96;98.50;102738.78;5019719;28;45428;-87
2021/12/15 06:21:24;;;;;;;;;26.25;18.75;;;;;15.10;97.95;102752.22;5020838;28;45486;-85
2021/12/15 06:23:50;;;;;;;;;29.00;22.25;;;;;15.09;97.93;102752.28;5026049;28;48278;-85
2021/12/15 06:26:17;;;;;;;;;32.75;21.00;;;;;15.39;97.81;102755.91;5020302;28;45514;-85
2021/12/15 06:28:44;;;;;;;;;23.75;20.00;;;;;15.15;97.66;102746.63;5002932;28;45275;-87
2021/12/15 06:31:14;;;;;;;;;22.25;19.50;;;;;14.96;98.24;102752.94;5021825;28;45451;-88
2021/12/15 06:33:49;;;;;;;;;25.00;18.50;;;;;14.98;97.96;102756.38;5001654;28;46275;-87
2021/12/15 06:36:20;;;;;;;;;24.75;19.50;;;;;15.02;97.63;102753.56;5012827;28;45480;-86
2021/12/15 06:38:51;;;;;;;;;27.75;19.50;;;;;15.65;96.40;102760.69;5019907;28;46427;-85
2021/12/15 06:41:35;;;;;;;;;22.50;19.00;;;;;15.73;95.66;102754.03;5016200;28;45444;-91
2021/12/15 06:44:08;;;;;;;;;21.25;17.50;;;;;15.84;95.74;102756.97;5002963;28;46977;-91
2021/12/15 07:26:15;;;;;;;;;16.00;14.00;;;;;15.76;94.79;102789.34;3269145;22;46703;-89
2021/12/15 07:29:28;;;;;;;;;;;;;;;;;;;;;
2021/12/15 07:32:58;;;;;;;;;33.00;18.25;;;;;15.75;95.16;102792.94;4948737;28;74326;-87
2021/12/15 07:35:25;;;;;;;;;21.25;16.50;;;;;15.85;94.43;102809.25;4941800;28;45734;-86
2021/12/15 07:38:42;;;;;;;;;20.50;14.75;;;;;15.50;96.24;102800.56;4936786;28;45643;-88
2021/12/15 07:41:35;;;;;;;;;;;;;;;;;;;;;
2021/12/15 07:44:21;;;;;;;;;;;;;;;;;;;;;
2021/12/15 07:47:29;;;;;;;;;20.50;18.00;;;;;15.44;96.75;102812.44;5042381;28;67386;-88
2021/12/15 07:50:06;;;;;;;;;;;;;;;;;;;;;
2021/12/15 07:52:51;;;;;;;;;;;;;;;;;;;;;
2021/12/15 07:55:33;;;;;;;;;;;;;;;;;;;;;
2021/12/15 07:58:44;;;;;;;;;25.75;15.75;;;;;15.54;97.10;102829.66;5042279;28;68113;-87
2021/12/15 08:01:28;;;;;;;;;;;;;;;;;;;;;
2021/12/15 08:04:16;;;;;;;;;;;;;;;;;;;;;
2021/12/15 08:13:31;;;;;;;;;;;;;;;;;;;;;
2021/12/15 08:19:33;;;;;;;;;;;;;;;;;;;;;
2021/12/15 08:22:41;;;;;;;;;29.75;20.50;;;;;15.41;97.71;102825.91;5026737;28;67405;-88
2021/12/15 08:25:40;;;;;;;;;30.00;18.75;;;;;15.55;97.88;102835.84;5038385;28;45171;-88
2021/12/15 08:28:45;;;;;;;;;26.25;15.75;;;;;15.57;97.76;102834.78;5036730;28;45418;-88
2021/12/15 08:34:43;;;;;;;;;;;;;;;;;;;;;
2021/12/15 08:37:15;;;;;;;;;;;;;;;;;;;;;
2021/12/15 08:40:02;;;;;;;;;;;;;;;;;;;;;
2021/12/15 08:42:40;;;;;;;;;;;;;;;;;;;;;
2021/12/15 08:45:17;;;;;;;;;25.25;20.00;;;;;15.78;99.11;102835.41;5031636;28;68853;-87
2021/12/15 08:47:55;;;;;;;;;;;;;;;;;;;;;
2021/12/15 08:51:02;;;;;;;;;;;;;;;;;;;;;
2021/12/15 08:53:46;;;;;;;;;24.25;18.25;;;;;16.01;98.42;102850.09;5041657;28;72839;-87
2021/12/15 08:57:11;;;;;;;;;;;;;;;;;;;;;
2021/12/15 08:59:44;;;;;;;;;24.25;17.00;;;;;15.90;99.10;102847.19;5021637;28;71953;-88
2021/12/15 09:02:37;;;;;;;;;;;;;;;;;;;;;
2021/12/15 09:05:07;;;;;;;;;21.75;16.00;;;;;16.21;99.14;102843.59;5021403;28;73127;-88
2021/12/15 09:08:05;;;;;;;;;24.00;15.75;;;;;16.22;98.20;102838.19;5004086;28;45412;-87
2021/12/15 09:10:50;;;;;;;;;20.50;15.75;;;;;16.04;99.27;102845.44;5021631;28;45447;-88
2021/12/15 09:17:05;;;;;;;;;;;;;;;;;;;;;
2021/12/15 09:20:12;;;;;;;;;;;;;;;;;;;;;
2021/12/15 09:23:12;;;;;;;;;;;;;;;;;;;;;
2021/12/15 09:29:31;;;;;;;;;12.75;9.50;;;;;16.58;97.05;102855.66;5026067;28;45562;-88
2021/12/15 09:35:09;;;;;;;;;;;;;;;;;;;;;
2021/12/15 09:42:03;;;;;;;;;;;;;;;;;;;;;
2021/12/15 09:44:57;;;;;;;;;;;;;;;;;;;;;
2021/12/15 10:12:23;;;;;;;;;19.75;16.25;;;;;16.19;96.75;102853.53;5026491;28;45455;-88
2021/12/15 10:19:18;;;;;;;;;;;;;;;;;;;;;
2021/12/15 10:37:17;;;;;;;;;19.00;16.00;;;;;16.79;96.19;102863.28;5020268;28;45520;-87
2021/12/15 10:40:28;;;;;;;;;15.00;14.00;;;;;16.87;96.28;102862.81;5002450;28;47946;-87
2021/12/15 10:43:11;;;;;;;;;19.50;15.00;;;;;16.87;96.41;102860.16;5015919;28;45304;-87
2021/12/15 10:45:41;;;;;;;;;19.75;16.75;;;;;16.88;96.09;102867.19;5002043;28;45203;-87
2021/12/15 10:48:15;;;;;;;;;16.25;15.75;;;;;16.94;95.49;102861.50;5018897;28;45325;-87
2021/12/15 10:50:53;;;;;;;;;;;;;;;;;;;;;
2021/12/15 10:53:40;;;;;;;;;19.00;14.00;;;;;16.97;96.33;102847.97;5018531;28;72005;-87
2021/12/15 10:56:26;;;;;;;;;;;;;;;;;;;;;
2021/12/15 10:58:59;;;;;;;;;18.50;15.00;;;;;17.07;95.96;102850.94;5015812;28;71382;-87
2021/12/15 11:01:55;;;;;;;;;18.00;15.75;;;;;17.15;95.40;102851.31;5009669;28;47239;-88
2021/12/15 11:04:33;;;;;;;;;18.25;16.75;;;;;17.12;95.52;102852.34;5019547;28;45494;-87
2021/12/15 11:07:39;;;;;;;;;25.50;19.50;;;;;17.13;95.67;102859.41;5019702;28;45575;-87
2021/12/15 11:10:07;;;;;;;;;23.25;15.50;;;;;17.11;96.17;102845.31;4960588;28;44865;-87
2021/12/15 11:12:40;;;;;;;;;13.75;12.50;;;;;17.17;95.46;102852.09;4960108;28;45400;-87
2021/12/15 11:15:15;;;;;;;;;20.75;15.25;;;;;17.22;96.01;102847.31;5009646;28;45400;-87
2021/12/15 11:17:44;;;;;;;;;22.25;11.50;;;;;17.26;95.17;102843.50;5019823;28;45408;-87
2021/12/15 11:20:24;;;;;;;;;12.25;10.50;;;;;17.31;95.89;102846.72;5019405;28;45170;-86
2021/12/15 11:23:53;;;;;;;;;16.25;13.75;;;;;17.40;95.63;102842.63;5017869;28;45498;-87
2021/12/15 11:26:46;;;;;;;;;16.00;11.00;;;;;17.31;95.43;102846.72;5012192;28;45619;-87
2021/12/15 11:29:14;;;;;;;;;20.75;14.00;;;;;17.20;96.56;102843.91;5001396;28;45643;-87
2021/12/15 11:31:43;;;;;;;;;16.50;11.25;;;;;17.23;96.25;102838.34;5000414;28;45448;-87
2021/12/15 11:34:10;;;;;;;;;19.50;13.50;;;;;17.29;96.38;102835.31;5007595;28;45611;-89
2021/12/15 11:36:50;;;;;;;;;16.00;10.00;;;;;17.32;95.81;102831.56;5017229;28;45416;-88
2021/12/15 11:39:40;;;;;;;;;;;;;;;;;;;;;
2021/12/15 11:42:26;;;;;;;;;16.75;15.00;;;;;17.28;95.86;102822.06;5020206;28;72636;-86
2021/12/15 11:45:22;;;;;;;;;16.00;12.50;;;;;17.28;95.79;102825.59;5017868;28;45446;-87
2021/12/15 11:48:16;;;;;;;;;18.50;16.00;;;;;17.39;94.74;102835.59;5047455;22;45816;-88
2021/12/15 11:54:10;;;;;;;;;;;;;;;;;;;;;
2021/12/15 11:56:44;;;;;;;;;15.50;11.25;;;;;17.40;95.74;102834.63;5002203;28;46463;-86
2021/12/15 12:00:13;;;;;;;;;16.50;11.50;;;;;17.44;95.87;102830.81;5017107;28;45348;-88
2021/12/15 12:02:41;;;;;;;;;13.00;11.00;;;;;17.36;95.51;102822.44;4994605;28;45158;-86
2021/12/15 12:05:24;;;;;;;;;16.00;11.00;;;;;17.53;95.34;102828.41;5026509;28;45515;-91
2021/12/15 12:08:22;;;;;;;;;17.50;12.25;;;;;17.58;94.85;102823.63;4996352;28;45581;-89
2021/12/15 12:13:58;;;;;;;;;17.25;12.00;;;;;17.50;93.53;102819.72;4994652;28;45560;-89
2021/12/15 12:16:25;;;;;;;;;13.25;10.25;;;;;17.40;94.19;102807.91;4994361;28;45475;-90
2021/12/15 12:19:14;;;;;;;;;11.50;10.25;;;;;17.25;94.40;102809.75;5000355;28;46531;-90
2021/12/15 12:21:42;;;;;;;;;15.00;11.75;;;;;17.24;94.78;102805.34;5001682;28;45498;-91
2021/12/15 12:24:16;;;;;;;;;12.50;12.25;;;;;17.23;94.87;102805.44;5002041;28;45464;-87
2021/12/15 12:26:44;;;;;;;;;22.50;13.00;;;;;17.24;95.38;102805.34;5010328;28;45342;-91
2021/12/15 12:29:10;;;;;;;;;13.00;10.75;;;;;17.18;93.91;102813.75;5009236;28;45327;-89
2021/12/15 12:31:36;;;;;;;;;13.25;10.50;;;;;17.13;94.54;102813.16;4990814;28;45704;-90
2021/12/15 12:34:01;;;;;;;;;17.00;10.00;;;;;17.21;94.89;102811.72;5000459;28;45476;-93
2021/12/15 12:36:31;;;;;;;;;22.25;16.00;;;;;17.30;94.79;102807.63;5005155;28;45503;-93
2021/12/15 12:59:55;;;;;;;;;10.25;10.25;;;;;17.32;94.21;102799.53;4885095;29;45503;-94
2021/12/15 13:06:03;;;;;;;;;15.50;10.25;;;;;17.09;93.50;102799.16;4910793;28;45642;-94
2021/12/15 14:46:03;;;;;;;;;;;;;;;;;;;;;
2021/12/15 14:48:28;;;;;;;;;7.50;5.00;;;;;16.62;94.62;102794.06;5032369;28;45897;-94
2021/12/15 14:50:54;;;;;;;;;7.00;5.50;;;;;16.67;95.47;102796.44;5027789;28;47925;-92
2021/12/15 14:54:00;;;;;;;;;9.25;9.00;;;;;16.71;95.16;102801.53;5043827;28;45433;-93
2021/12/15 14:56:47;;;;;;;;;11.00;5.25;;;;;16.77;95.02;102802.94;5041814;28;44801;-94
2021/12/15 17:59:54;;;;;;;;;;;;;;;;;;;;;
2021/12/15 18:33:36;;;;;;;;;21.00;14.75;;;;;15.54;97.53;102903.34;5027866;28;46589;-90
2021/12/15 20:49:40;;;;;;;;;33.50;27.75;;;;;15.96;100.00;103026.22;4939538;28;45893;-89
2021/12/15 20:52:29;;;;;;;;;36.00;28.25;;;;;15.98;100.00;103028.81;4858715;29;45654;-88
2021/12/15 21:25:46;;;;;;;;;;;;;;;;;;;;;
2021/12/15 21:54:54;;;;;;;;;59.25;39.75;;;;;15.69;100.00;103039.22;5104739;22;45739;-89
2021/12/15 22:01:52;;;;;;;;;;;;;;;;;;;;;
2021/12/15 23:41:49;;;;;;;;;46.50;39.00;;;;;15.82;100.00;103065.22;6044633;22;45990;-88
